sensor_id;sensor_type;location;lat;lon;timestamp;temperature;humidity
73547;SHT30;61807;48.384;-4.386;2023-07-29T00:00:32;18.55;84.82
73547;SHT30;61807;48.384;-4.386;2023-07-29T00:02:57;18.51;84.82
73547;SHT30;61807;48.384;-4.386;2023-07-29T00:05:23;18.51;84.83
73547;SHT30;61807;48.384;-4.386;2023-07-29T00:07:48;18.48;84.81
73547;SHT30;61807;48.384;-4.386;2023-07-29T00:10:13;18.45;84.80
73547;SHT30;61807;48.384;-4.386;2023-07-29T00:12:39;18.45;84.84
73547;SHT30;61807;48.384;-4.386;2023-07-29T00:15:05;18.44;84.88
73547;SHT30;61807;48.384;-4.386;2023-07-29T00:17:30;18.41;84.90
73547;SHT30;61807;48.384;-4.386;2023-07-29T00:19:55;18.38;84.95
73547;SHT30;61807;48.384;-4.386;2023-07-29T00:22:21;18.41;84.91
73547;SHT30;61807;48.384;-4.386;2023-07-29T00:24:52;18.38;84.92
73547;SHT30;61807;48.384;-4.386;2023-07-29T00:27:18;18.38;84.95
73547;SHT30;61807;48.384;-4.386;2023-07-29T00:29:44;18.37;84.99
73547;SHT30;61807;48.384;-4.386;2023-07-29T00:32:09;18.38;84.99
73547;SHT30;61807;48.384;-4.386;2023-07-29T00:34:34;18.38;85.04
73547;SHT30;61807;48.384;-4.386;2023-07-29T00:37:00;18.38;85.09
73547;SHT30;61807;48.384;-4.386;2023-07-29T00:39:25;18.34;85.18
73547;SHT30;61807;48.384;-4.386;2023-07-29T00:41:51;18.37;85.20
73547;SHT30;61807;48.384;-4.386;2023-07-29T00:44:16;18.37;85.27
73547;SHT30;61807;48.384;-4.386;2023-07-29T00:46:42;18.38;85.37
73547;SHT30;61807;48.384;-4.386;2023-07-29T00:49:08;18.38;85.42
73547;SHT30;61807;48.384;-4.386;2023-07-29T00:51:34;18.43;85.44
73547;SHT30;61807;48.384;-4.386;2023-07-29T00:54:00;18.40;85.42
73547;SHT30;61807;48.384;-4.386;2023-07-29T00:56:25;18.41;85.45
73547;SHT30;61807;48.384;-4.386;2023-07-29T00:58:51;18.43;85.49
73547;SHT30;61807;48.384;-4.386;2023-07-29T01:01:21;18.43;85.55
73547;SHT30;61807;48.384;-4.386;2023-07-29T01:03:47;18.44;85.61
73547;SHT30;61807;48.384;-4.386;2023-07-29T01:06:21;18.43;85.71
73547;SHT30;61807;48.384;-4.386;2023-07-29T01:16:44;18.44;85.89
73547;SHT30;61807;48.384;-4.386;2023-07-29T01:19:43;18.44;85.99
73547;SHT30;61807;48.384;-4.386;2023-07-29T01:22:07;18.44;85.95
73547;SHT30;61807;48.384;-4.386;2023-07-29T01:24:33;18.44;86.01
73547;SHT30;61807;48.384;-4.386;2023-07-29T01:26:59;18.43;86.08
73547;SHT30;61807;48.384;-4.386;2023-07-29T01:29:27;18.40;86.13
73547;SHT30;61807;48.384;-4.386;2023-07-29T01:31:54;18.41;86.12
73547;SHT30;61807;48.384;-4.386;2023-07-29T01:34:30;18.40;86.14
73547;SHT30;61807;48.384;-4.386;2023-07-29T01:36:57;18.37;86.09
73547;SHT30;61807;48.384;-4.386;2023-07-29T01:39:26;18.31;86.03
73547;SHT30;61807;48.384;-4.386;2023-07-29T01:41:52;18.31;86.09
73547;SHT30;61807;48.384;-4.386;2023-07-29T01:44:18;18.27;86.13
73547;SHT30;61807;48.384;-4.386;2023-07-29T01:46:44;18.24;86.09
73547;SHT30;61807;48.384;-4.386;2023-07-29T01:49:10;18.23;86.09
73547;SHT30;61807;48.384;-4.386;2023-07-29T01:51:35;18.21;86.02
73547;SHT30;61807;48.384;-4.386;2023-07-29T01:54:01;18.18;85.87
73547;SHT30;61807;48.384;-4.386;2023-07-29T01:56:26;18.14;85.88
73547;SHT30;61807;48.384;-4.386;2023-07-29T01:58:51;18.18;85.84
73547;SHT30;61807;48.384;-4.386;2023-07-29T02:01:17;18.16;85.79
73547;SHT30;61807;48.384;-4.386;2023-07-29T02:03:43;18.18;85.70
73547;SHT30;61807;48.384;-4.386;2023-07-29T02:06:08;18.16;85.67
73547;SHT30;61807;48.384;-4.386;2023-07-29T02:08:34;18.14;85.59
73547;SHT30;61807;48.384;-4.386;2023-07-29T02:11:00;18.10;85.57
73547;SHT30;61807;48.384;-4.386;2023-07-29T02:13:25;18.11;85.59
73547;SHT30;61807;48.384;-4.386;2023-07-29T02:15:51;18.07;85.55
73547;SHT30;61807;48.384;-4.386;2023-07-29T02:18:16;18.09;85.47
73547;SHT30;61807;48.384;-4.386;2023-07-29T02:20:42;18.07;85.47
73547;SHT30;61807;48.384;-4.386;2023-07-29T02:23:14;18.07;85.41
73547;SHT30;61807;48.384;-4.386;2023-07-29T02:25:40;18.04;85.49
73547;SHT30;61807;48.384;-4.386;2023-07-29T02:28:05;18.03;85.45
73547;SHT30;61807;48.384;-4.386;2023-07-29T02:30:30;18.06;85.36
73547;SHT30;61807;48.384;-4.386;2023-07-29T02:32:56;18.00;85.33
73547;SHT30;61807;48.384;-4.386;2023-07-29T02:35:21;18.03;85.35
73547;SHT30;61807;48.384;-4.386;2023-07-29T02:37:46;18.03;85.34
73547;SHT30;61807;48.384;-4.386;2023-07-29T02:40:12;18.01;85.34
73547;SHT30;61807;48.384;-4.386;2023-07-29T02:42:37;18.01;85.29
73547;SHT30;61807;48.384;-4.386;2023-07-29T02:45:03;18.00;85.30
73547;SHT30;61807;48.384;-4.386;2023-07-29T02:47:29;18.01;85.33
73547;SHT30;61807;48.384;-4.386;2023-07-29T02:49:54;18.01;85.29
73547;SHT30;61807;48.384;-4.386;2023-07-29T02:52:20;17.97;85.37
73547;SHT30;61807;48.384;-4.386;2023-07-29T02:54:45;17.99;85.35
73547;SHT30;61807;48.384;-4.386;2023-07-29T02:57:11;18.00;85.39
73547;SHT30;61807;48.384;-4.386;2023-07-29T02:59:36;17.99;85.35
73547;SHT30;61807;48.384;-4.386;2023-07-29T03:02:01;17.97;85.40
73547;SHT30;61807;48.384;-4.386;2023-07-29T03:04:27;18.00;85.44
73547;SHT30;61807;48.384;-4.386;2023-07-29T03:06:52;17.96;85.40
73547;SHT30;61807;48.384;-4.386;2023-07-29T03:09:18;17.96;85.39
73547;SHT30;61807;48.384;-4.386;2023-07-29T03:11:43;17.96;85.46
73547;SHT30;61807;48.384;-4.386;2023-07-29T03:14:08;17.96;85.48
73547;SHT30;61807;48.384;-4.386;2023-07-29T03:16:34;17.94;85.47
73547;SHT30;61807;48.384;-4.386;2023-07-29T03:18:59;17.96;85.49
73547;SHT30;61807;48.384;-4.386;2023-07-29T03:21:25;17.96;85.46
73547;SHT30;61807;48.384;-4.386;2023-07-29T03:23:50;17.96;85.44
73547;SHT30;61807;48.384;-4.386;2023-07-29T03:26:16;17.97;85.49
73547;SHT30;61807;48.384;-4.386;2023-07-29T03:28:43;17.99;85.47
73547;SHT30;61807;48.384;-4.386;2023-07-29T03:31:09;17.96;85.50
73547;SHT30;61807;48.384;-4.386;2023-07-29T03:33:34;17.99;85.51
73547;SHT30;61807;48.384;-4.386;2023-07-29T03:36:00;17.99;85.45
73547;SHT30;61807;48.384;-4.386;2023-07-29T03:38:25;17.97;85.44
73547;SHT30;61807;48.384;-4.386;2023-07-29T03:40:51;18.00;85.43
73547;SHT30;61807;48.384;-4.386;2023-07-29T03:43:16;18.01;85.45
73547;SHT30;61807;48.384;-4.386;2023-07-29T03:45:42;17.99;85.45
73547;SHT30;61807;48.384;-4.386;2023-07-29T03:48:07;18.00;85.42
73547;SHT30;61807;48.384;-4.386;2023-07-29T03:50:34;17.99;85.35
73547;SHT30;61807;48.384;-4.386;2023-07-29T03:53:04;17.94;85.29
73547;SHT30;61807;48.384;-4.386;2023-07-29T03:55:30;17.89;85.38
73547;SHT30;61807;48.384;-4.386;2023-07-29T03:57:56;17.87;85.36
73547;SHT30;61807;48.384;-4.386;2023-07-29T04:00:22;17.87;85.34
73547;SHT30;61807;48.384;-4.386;2023-07-29T04:02:47;17.86;85.31
73547;SHT30;61807;48.384;-4.386;2023-07-29T04:05:13;17.87;85.29
73547;SHT30;61807;48.384;-4.386;2023-07-29T04:07:38;17.86;85.27
73547;SHT30;61807;48.384;-4.386;2023-07-29T04:10:05;17.82;85.23
73547;SHT30;61807;48.384;-4.386;2023-07-29T04:12:31;17.82;85.21
73547;SHT30;61807;48.384;-4.386;2023-07-29T04:14:56;17.79;85.20
73547;SHT30;61807;48.384;-4.386;2023-07-29T04:17:21;17.78;85.17
73547;SHT30;61807;48.384;-4.386;2023-07-29T04:19:47;17.75;85.17
73547;SHT30;61807;48.384;-4.386;2023-07-29T04:22:12;17.73;85.15
73547;SHT30;61807;48.384;-4.386;2023-07-29T04:24:38;17.72;85.21
73547;SHT30;61807;48.384;-4.386;2023-07-29T04:27:03;17.72;85.24
73547;SHT30;61807;48.384;-4.386;2023-07-29T04:29:29;17.73;85.18
73547;SHT30;61807;48.384;-4.386;2023-07-29T04:31:54;17.75;85.17
73547;SHT30;61807;48.384;-4.386;2023-07-29T04:34:20;17.73;85.12
73547;SHT30;61807;48.384;-4.386;2023-07-29T04:36:46;17.72;85.10
73547;SHT30;61807;48.384;-4.386;2023-07-29T04:39:12;17.72;85.05
73547;SHT30;61807;48.384;-4.386;2023-07-29T04:41:37;17.69;85.05
73547;SHT30;61807;48.384;-4.386;2023-07-29T04:44:03;17.66;85.12
73547;SHT30;61807;48.384;-4.386;2023-07-29T04:46:28;17.66;85.13
73547;SHT30;61807;48.384;-4.386;2023-07-29T04:48:54;17.63;85.13
73547;SHT30;61807;48.384;-4.386;2023-07-29T04:51:19;17.65;85.12
73547;SHT30;61807;48.384;-4.386;2023-07-29T04:53:44;17.62;85.13
73547;SHT30;61807;48.384;-4.386;2023-07-29T04:56:10;17.59;85.15
73547;SHT30;61807;48.384;-4.386;2023-07-29T04:58:35;17.61;85.17
73547;SHT30;61807;48.384;-4.386;2023-07-29T05:01:02;17.63;85.17
73547;SHT30;61807;48.384;-4.386;2023-07-29T05:03:28;17.62;85.13
73547;SHT30;61807;48.384;-4.386;2023-07-29T05:05:53;17.62;85.15
73547;SHT30;61807;48.384;-4.386;2023-07-29T05:08:20;17.65;85.16
73547;SHT30;61807;48.384;-4.386;2023-07-29T05:10:50;17.61;85.12
73547;SHT30;61807;48.384;-4.386;2023-07-29T05:13:15;17.66;85.12
73547;SHT30;61807;48.384;-4.386;2023-07-29T05:15:41;17.63;85.12
73547;SHT30;61807;48.384;-4.386;2023-07-29T05:18:06;17.66;85.10
73547;SHT30;61807;48.384;-4.386;2023-07-29T05:20:32;17.65;85.06
73547;SHT30;61807;48.384;-4.386;2023-07-29T05:22:57;17.63;85.06
73547;SHT30;61807;48.384;-4.386;2023-07-29T05:25:22;17.65;85.00
73547;SHT30;61807;48.384;-4.386;2023-07-29T05:27:48;17.62;85.02
73547;SHT30;61807;48.384;-4.386;2023-07-29T05:30:13;17.61;84.98
73547;SHT30;61807;48.384;-4.386;2023-07-29T05:32:39;17.61;84.97
73547;SHT30;61807;48.384;-4.386;2023-07-29T05:35:04;17.63;84.92
73547;SHT30;61807;48.384;-4.386;2023-07-29T05:37:30;17.61;84.96
73547;SHT30;61807;48.384;-4.386;2023-07-29T05:39:55;17.59;84.95
73547;SHT30;61807;48.384;-4.386;2023-07-29T05:42:20;17.62;84.90
73547;SHT30;61807;48.384;-4.386;2023-07-29T05:44:46;17.62;84.88
73547;SHT30;61807;48.384;-4.386;2023-07-29T05:47:11;17.62;84.87
73547;SHT30;61807;48.384;-4.386;2023-07-29T05:49:36;17.65;84.92
73547;SHT30;61807;48.384;-4.386;2023-07-29T05:52:02;17.70;84.93
73547;SHT30;61807;48.384;-4.386;2023-07-29T05:54:28;17.72;84.89
73547;SHT30;61807;48.384;-4.386;2023-07-29T05:56:53;17.72;84.83
73547;SHT30;61807;48.384;-4.386;2023-07-29T05:59:18;17.70;84.80
73547;SHT30;61807;48.384;-4.386;2023-07-29T06:01:44;17.73;84.79
73547;SHT30;61807;48.384;-4.386;2023-07-29T06:04:09;17.76;84.78
73547;SHT30;61807;48.384;-4.386;2023-07-29T06:06:35;17.73;84.71
73547;SHT30;61807;48.384;-4.386;2023-07-29T06:09:00;17.72;84.73
73547;SHT30;61807;48.384;-4.386;2023-07-29T06:11:25;17.78;84.73
73547;SHT30;61807;48.384;-4.386;2023-07-29T06:13:51;17.78;84.74
73547;SHT30;61807;48.384;-4.386;2023-07-29T06:16:16;17.82;84.78
73547;SHT30;61807;48.384;-4.386;2023-07-29T06:18:41;17.83;84.83
73547;SHT30;61807;48.384;-4.386;2023-07-29T06:21:07;17.89;84.78
73547;SHT30;61807;48.384;-4.386;2023-07-29T06:23:34;17.94;84.84
73547;SHT30;61807;48.384;-4.386;2023-07-29T06:25:59;18.03;84.81
73547;SHT30;61807;48.384;-4.386;2023-07-29T06:28:26;18.06;84.68
73547;SHT30;61807;48.384;-4.386;2023-07-29T06:30:51;18.11;84.72
73547;SHT30;61807;48.384;-4.386;2023-07-29T06:33:17;18.16;84.74
73547;SHT30;61807;48.384;-4.386;2023-07-29T06:35:42;18.24;84.68
73547;SHT30;61807;48.384;-4.386;2023-07-29T06:38:08;18.31;84.69
73547;SHT30;61807;48.384;-4.386;2023-07-29T06:40:33;18.36;84.61
73547;SHT30;61807;48.384;-4.386;2023-07-29T06:42:58;18.41;84.49
73547;SHT30;61807;48.384;-4.386;2023-07-29T06:45:24;18.50;84.40
73547;SHT30;61807;48.384;-4.386;2023-07-29T06:47:49;18.52;84.40
73547;SHT30;61807;48.384;-4.386;2023-07-29T06:50:14;18.58;84.25
73547;SHT30;61807;48.384;-4.386;2023-07-29T06:52:40;18.62;84.18
73547;SHT30;61807;48.384;-4.386;2023-07-29T06:55:06;18.59;84.05
73547;SHT30;61807;48.384;-4.386;2023-07-29T06:57:31;18.61;84.04
73547;SHT30;61807;48.384;-4.386;2023-07-29T06:59:57;18.61;84.06
73547;SHT30;61807;48.384;-4.386;2023-07-29T07:02:23;18.68;84.18
73547;SHT30;61807;48.384;-4.386;2023-07-29T07:04:48;18.71;84.16
73547;SHT30;61807;48.384;-4.386;2023-07-29T07:07:13;18.78;84.14
73547;SHT30;61807;48.384;-4.386;2023-07-29T07:09:39;18.88;84.07
73547;SHT30;61807;48.384;-4.386;2023-07-29T07:12:04;18.95;83.89
73547;SHT30;61807;48.384;-4.386;2023-07-29T07:14:30;19.09;83.83
73547;SHT30;61807;48.384;-4.386;2023-07-29T07:16:55;19.13;83.69
73547;SHT30;61807;48.384;-4.386;2023-07-29T07:19:20;19.20;83.61
73547;SHT30;61807;48.384;-4.386;2023-07-29T07:21:46;19.22;83.59
73547;SHT30;61807;48.384;-4.386;2023-07-29T07:24:11;19.31;83.54
73547;SHT30;61807;48.384;-4.386;2023-07-29T07:26:36;19.34;83.36
73547;SHT30;61807;48.384;-4.386;2023-07-29T07:29:02;19.40;83.22
73547;SHT30;61807;48.384;-4.386;2023-07-29T07:31:27;19.41;83.12
73547;SHT30;61807;48.384;-4.386;2023-07-29T07:33:52;19.37;83.00
73547;SHT30;61807;48.384;-4.386;2023-07-29T07:36:18;19.40;83.01
73547;SHT30;61807;48.384;-4.386;2023-07-29T07:38:43;19.40;83.02
73547;SHT30;61807;48.384;-4.386;2023-07-29T07:41:09;19.41;83.02
73547;SHT30;61807;48.384;-4.386;2023-07-29T07:43:34;19.40;82.97
73547;SHT30;61807;48.384;-4.386;2023-07-29T07:46:01;19.38;82.90
73547;SHT30;61807;48.384;-4.386;2023-07-29T07:48:27;19.38;82.84
73547;SHT30;61807;48.384;-4.386;2023-07-29T07:50:53;19.37;82.88
73547;SHT30;61807;48.384;-4.386;2023-07-29T07:53:18;19.38;82.90
73547;SHT30;61807;48.384;-4.386;2023-07-29T07:55:45;19.41;82.85
73547;SHT30;61807;48.384;-4.386;2023-07-29T07:58:10;19.41;82.84
73547;SHT30;61807;48.384;-4.386;2023-07-29T08:00:35;19.43;82.72
73547;SHT30;61807;48.384;-4.386;2023-07-29T08:03:01;19.41;82.64
73547;SHT30;61807;48.384;-4.386;2023-07-29T08:05:26;19.38;82.72
73547;SHT30;61807;48.384;-4.386;2023-07-29T08:07:52;19.36;82.70
73547;SHT30;61807;48.384;-4.386;2023-07-29T08:10:17;19.33;82.78
73547;SHT30;61807;48.384;-4.386;2023-07-29T08:12:42;19.33;82.92
73547;SHT30;61807;48.384;-4.386;2023-07-29T08:15:08;19.31;82.87
73547;SHT30;61807;48.384;-4.386;2023-07-29T08:17:33;19.33;82.99
73547;SHT30;61807;48.384;-4.386;2023-07-29T08:19:59;19.33;82.93
73547;SHT30;61807;48.384;-4.386;2023-07-29T08:22:24;19.27;82.94
73547;SHT30;61807;48.384;-4.386;2023-07-29T08:24:49;19.17;82.35
73547;SHT30;61807;48.384;-4.386;2023-07-29T08:27:15;19.03;82.57
73547;SHT30;61807;48.384;-4.386;2023-07-29T08:29:40;18.95;82.47
73547;SHT30;61807;48.384;-4.386;2023-07-29T08:32:06;18.89;82.45
73547;SHT30;61807;48.384;-4.386;2023-07-29T08:34:32;18.92;82.38
73547;SHT30;61807;48.384;-4.386;2023-07-29T08:36:57;18.94;82.22
73547;SHT30;61807;48.384;-4.386;2023-07-29T08:39:23;18.95;82.05
73547;SHT30;61807;48.384;-4.386;2023-07-29T08:41:56;18.94;82.17
73547;SHT30;61807;48.384;-4.386;2023-07-29T08:44:26;18.99;82.25
73547;SHT30;61807;48.384;-4.386;2023-07-29T08:46:52;18.99;81.93
73547;SHT30;61807;48.384;-4.386;2023-07-29T08:49:19;18.99;81.95
73547;SHT30;61807;48.384;-4.386;2023-07-29T08:51:49;19.05;81.81
73547;SHT30;61807;48.384;-4.386;2023-07-29T08:54:15;19.02;82.00
73547;SHT30;61807;48.384;-4.386;2023-07-29T08:56:41;19.00;81.61
73547;SHT30;61807;48.384;-4.386;2023-07-29T08:59:08;19.00;81.96
73547;SHT30;61807;48.384;-4.386;2023-07-29T09:01:33;19.05;81.86
73547;SHT30;61807;48.384;-4.386;2023-07-29T09:03:59;19.00;81.48
73547;SHT30;61807;48.384;-4.386;2023-07-29T09:06:25;18.99;81.70
73547;SHT30;61807;48.384;-4.386;2023-07-29T09:08:53;19.05;81.55
73547;SHT30;61807;48.384;-4.386;2023-07-29T09:11:20;19.10;81.42
73547;SHT30;61807;48.384;-4.386;2023-07-29T09:13:45;19.09;81.24
73547;SHT30;61807;48.384;-4.386;2023-07-29T09:16:11;19.10;81.49
73547;SHT30;61807;48.384;-4.386;2023-07-29T09:18:37;19.09;81.40
73547;SHT30;61807;48.384;-4.386;2023-07-29T09:21:02;19.13;81.50
73547;SHT30;61807;48.384;-4.386;2023-07-29T09:23:28;19.10;81.14
73547;SHT30;61807;48.384;-4.386;2023-07-29T09:26:03;19.02;81.31
73547;SHT30;61807;48.384;-4.386;2023-07-29T09:28:34;19.00;81.42
73547;SHT30;61807;48.384;-4.386;2023-07-29T09:31:00;18.98;81.32
73547;SHT30;61807;48.384;-4.386;2023-07-29T09:33:26;18.95;81.36
73547;SHT30;61807;48.384;-4.386;2023-07-29T09:35:51;18.95;81.48
73547;SHT30;61807;48.384;-4.386;2023-07-29T09:38:17;18.94;81.43
73547;SHT30;61807;48.384;-4.386;2023-07-29T09:40:42;18.91;81.58
73547;SHT30;61807;48.384;-4.386;2023-07-29T09:43:10;18.88;81.79
73547;SHT30;61807;48.384;-4.386;2023-07-29T09:45:36;18.95;81.82
73547;SHT30;61807;48.384;-4.386;2023-07-29T09:48:04;18.98;81.47
73547;SHT30;61807;48.384;-4.386;2023-07-29T09:50:35;19.05;81.56
73547;SHT30;61807;48.384;-4.386;2023-07-29T09:53:01;19.10;81.59
73547;SHT30;61807;48.384;-4.386;2023-07-29T09:55:28;19.16;81.31
73547;SHT30;61807;48.384;-4.386;2023-07-29T09:57:57;19.16;80.81
73547;SHT30;61807;48.384;-4.386;2023-07-29T10:00:27;19.17;81.09
73547;SHT30;61807;48.384;-4.386;2023-07-29T10:02:53;19.24;80.80
73547;SHT30;61807;48.384;-4.386;2023-07-29T10:05:21;19.34;81.07
73547;SHT30;61807;48.384;-4.386;2023-07-29T10:07:47;19.37;81.00
73547;SHT30;61807;48.384;-4.386;2023-07-29T10:10:13;19.33;80.79
73547;SHT30;61807;48.384;-4.386;2023-07-29T10:12:39;19.34;80.58
73547;SHT30;61807;48.384;-4.386;2023-07-29T10:15:06;19.36;80.95
73547;SHT30;61807;48.384;-4.386;2023-07-29T10:17:39;19.38;80.84
73547;SHT30;61807;48.384;-4.386;2023-07-29T10:20:06;19.38;80.68
73547;SHT30;61807;48.384;-4.386;2023-07-29T10:22:51;19.45;80.94
73547;SHT30;61807;48.384;-4.386;2023-07-29T10:25:22;19.51;81.00
73547;SHT30;61807;48.384;-4.386;2023-07-29T10:27:57;19.63;80.88
73547;SHT30;61807;48.384;-4.386;2023-07-29T10:30:28;19.67;80.73
73547;SHT30;61807;48.384;-4.386;2023-07-29T10:32:54;19.75;80.50
73547;SHT30;61807;48.384;-4.386;2023-07-29T10:35:23;19.79;80.23
73547;SHT30;61807;48.384;-4.386;2023-07-29T10:37:48;19.77;79.90
73547;SHT30;61807;48.384;-4.386;2023-07-29T10:40:16;19.82;79.79
73547;SHT30;61807;48.384;-4.386;2023-07-29T10:43:00;19.87;79.67
73547;SHT30;61807;48.384;-4.386;2023-07-29T10:45:37;19.88;79.68
73547;SHT30;61807;48.384;-4.386;2023-07-29T10:48:10;19.89;79.52
73547;SHT30;61807;48.384;-4.386;2023-07-29T10:50:35;19.91;79.55
73547;SHT30;61807;48.384;-4.386;2023-07-29T10:53:01;20.01;79.74
73547;SHT30;61807;48.384;-4.386;2023-07-29T10:55:34;20.05;79.66
73547;SHT30;61807;48.384;-4.386;2023-07-29T10:58:08;20.09;79.39
73547;SHT30;61807;48.384;-4.386;2023-07-29T11:00:34;20.12;79.26
73547;SHT30;61807;48.384;-4.386;2023-07-29T11:03:02;20.08;78.79
73547;SHT30;61807;48.384;-4.386;2023-07-29T11:08:30;20.05;79.00
73547;SHT30;61807;48.384;-4.386;2023-07-29T11:13:31;20.12;79.15
73547;SHT30;61807;48.384;-4.386;2023-07-29T11:15:58;20.16;78.76
73547;SHT30;61807;48.384;-4.386;2023-07-29T11:18:28;20.11;78.63
73547;SHT30;61807;48.384;-4.386;2023-07-29T11:20:55;20.12;78.53
73547;SHT30;61807;48.384;-4.386;2023-07-29T11:23:36;20.11;78.49
73547;SHT30;61807;48.384;-4.386;2023-07-29T11:26:03;20.09;78.48
73547;SHT30;61807;48.384;-4.386;2023-07-29T11:28:29;20.08;78.47
73547;SHT30;61807;48.384;-4.386;2023-07-29T11:30:56;20.04;77.99
73547;SHT30;61807;48.384;-4.386;2023-07-29T11:33:24;20.02;78.27
73547;SHT30;61807;48.384;-4.386;2023-07-29T11:35:50;20.04;78.50
73547;SHT30;61807;48.384;-4.386;2023-07-29T11:38:17;20.08;78.67
73547;SHT30;61807;48.384;-4.386;2023-07-29T11:40:43;20.02;77.85
73547;SHT30;61807;48.384;-4.386;2023-07-29T11:43:09;19.91;78.02
73547;SHT30;61807;48.384;-4.386;2023-07-29T11:45:34;19.82;78.40
73547;SHT30;61807;48.384;-4.386;2023-07-29T11:48:02;19.74;78.49
73547;SHT30;61807;48.384;-4.386;2023-07-29T11:50:28;19.74;78.83
73547;SHT30;61807;48.384;-4.386;2023-07-29T11:52:53;19.74;78.90
73547;SHT30;61807;48.384;-4.386;2023-07-29T11:55:19;19.74;79.00
73547;SHT30;61807;48.384;-4.386;2023-07-29T11:57:48;19.71;79.03
73547;SHT30;61807;48.384;-4.386;2023-07-29T12:00:16;19.61;79.17
73547;SHT30;61807;48.384;-4.386;2023-07-29T12:02:44;19.54;79.20
73547;SHT30;61807;48.384;-4.386;2023-07-29T12:05:11;19.47;79.15
73547;SHT30;61807;48.384;-4.386;2023-07-29T12:07:42;19.40;79.51
73547;SHT30;61807;48.384;-4.386;2023-07-29T12:10:08;19.36;79.53
73547;SHT30;61807;48.384;-4.386;2023-07-29T12:12:42;19.30;79.97
73547;SHT30;61807;48.384;-4.386;2023-07-29T12:15:09;19.30;80.01
73547;SHT30;61807;48.384;-4.386;2023-07-29T12:17:39;19.36;80.05
73547;SHT30;61807;48.384;-4.386;2023-07-29T12:20:08;19.41;80.03
73547;SHT30;61807;48.384;-4.386;2023-07-29T12:22:33;19.49;79.79
73547;SHT30;61807;48.384;-4.386;2023-07-29T12:24:59;19.56;79.62
73547;SHT30;61807;48.384;-4.386;2023-07-29T12:27:24;19.73;79.61
73547;SHT30;61807;48.384;-4.386;2023-07-29T12:29:52;19.81;79.11
73547;SHT30;61807;48.384;-4.386;2023-07-29T12:32:17;19.78;78.85
73547;SHT30;61807;48.384;-4.386;2023-07-29T12:34:42;19.79;78.74
73547;SHT30;61807;48.384;-4.386;2023-07-29T12:37:08;19.79;78.86
73547;SHT30;61807;48.384;-4.386;2023-07-29T12:39:35;19.78;78.86
73547;SHT30;61807;48.384;-4.386;2023-07-29T12:42:02;19.81;79.07
73547;SHT30;61807;48.384;-4.386;2023-07-29T12:44:32;19.87;79.03
73547;SHT30;61807;48.384;-4.386;2023-07-29T12:47:00;19.96;79.22
73547;SHT30;61807;48.384;-4.386;2023-07-29T12:49:25;20.08;79.13
73547;SHT30;61807;48.384;-4.386;2023-07-29T12:51:50;20.42;78.87
73547;SHT30;61807;48.384;-4.386;2023-07-29T12:54:16;20.73;78.02
73547;SHT30;61807;48.384;-4.386;2023-07-29T12:56:41;20.81;77.21
73547;SHT30;61807;48.384;-4.386;2023-07-29T12:59:06;20.76;76.65
73547;SHT30;61807;48.384;-4.386;2023-07-29T13:01:32;20.83;76.85
73547;SHT30;61807;48.384;-4.386;2023-07-29T13:03:57;21.08;76.90
73547;SHT30;61807;48.384;-4.386;2023-07-29T13:06:23;21.25;76.50
73547;SHT30;61807;48.384;-4.386;2023-07-29T13:08:49;21.39;76.45
73547;SHT30;61807;48.384;-4.386;2023-07-29T13:11:15;21.35;75.76
73547;SHT30;61807;48.384;-4.386;2023-07-29T13:13:40;21.21;76.06
73547;SHT30;61807;48.384;-4.386;2023-07-29T13:16:06;21.12;75.83
73547;SHT30;61807;48.384;-4.386;2023-07-29T13:18:32;21.03;76.55
73547;SHT30;61807;48.384;-4.386;2023-07-29T13:20:57;21.12;76.83
73547;SHT30;61807;48.384;-4.386;2023-07-29T13:23:23;21.63;76.52
73547;SHT30;61807;48.384;-4.386;2023-07-29T13:25:48;22.33;75.24
73547;SHT30;61807;48.384;-4.386;2023-07-29T13:28:14;22.89;73.59
73547;SHT30;61807;48.384;-4.386;2023-07-29T13:30:40;23.37;71.96
73547;SHT30;61807;48.384;-4.386;2023-07-29T13:33:06;23.87;71.03
73547;SHT30;61807;48.384;-4.386;2023-07-29T13:35:32;24.06;71.28
73547;SHT30;61807;48.384;-4.386;2023-07-29T13:37:57;24.40;69.46
73547;SHT30;61807;48.384;-4.386;2023-07-29T13:40:22;24.22;69.64
73547;SHT30;61807;48.384;-4.386;2023-07-29T13:42:48;23.93;69.56
73547;SHT30;61807;48.384;-4.386;2023-07-29T13:45:13;23.79;69.02
73547;SHT30;61807;48.384;-4.386;2023-07-29T13:47:39;23.84;69.12
73547;SHT30;61807;48.384;-4.386;2023-07-29T13:50:05;23.94;67.68
73547;SHT30;61807;48.384;-4.386;2023-07-29T13:52:32;24.14;66.61
73547;SHT30;61807;48.384;-4.386;2023-07-29T13:54:58;24.45;66.13
73547;SHT30;61807;48.384;-4.386;2023-07-29T13:57:23;24.69;63.08
73547;SHT30;61807;48.384;-4.386;2023-07-29T13:59:49;24.63;63.22
73547;SHT30;61807;48.384;-4.386;2023-07-29T14:02:14;24.42;62.75
73547;SHT30;61807;48.384;-4.386;2023-07-29T14:04:39;24.04;63.48
73547;SHT30;61807;48.384;-4.386;2023-07-29T14:07:05;23.73;63.96
73547;SHT30;61807;48.384;-4.386;2023-07-29T14:09:30;23.64;64.28
73547;SHT30;61807;48.384;-4.386;2023-07-29T14:11:56;23.51;64.98
73547;SHT30;61807;48.384;-4.386;2023-07-29T14:14:21;23.37;64.08
73547;SHT30;61807;48.384;-4.386;2023-07-29T14:16:47;23.56;64.90
73547;SHT30;61807;48.384;-4.386;2023-07-29T14:19:13;23.60;63.76
73547;SHT30;61807;48.384;-4.386;2023-07-29T14:21:38;23.66;63.09
73547;SHT30;61807;48.384;-4.386;2023-07-29T14:24:04;23.74;64.74
73547;SHT30;61807;48.384;-4.386;2023-07-29T14:26:30;23.85;62.80
73547;SHT30;61807;48.384;-4.386;2023-07-29T14:28:55;23.75;62.22
73547;SHT30;61807;48.384;-4.386;2023-07-29T14:31:21;23.57;62.78
73547;SHT30;61807;48.384;-4.386;2023-07-29T14:33:47;23.40;63.43
73547;SHT30;61807;48.384;-4.386;2023-07-29T14:36:15;23.26;63.59
73547;SHT30;61807;48.384;-4.386;2023-07-29T14:38:40;23.08;63.49
73547;SHT30;61807;48.384;-4.386;2023-07-29T14:41:06;22.89;63.49
73547;SHT30;61807;48.384;-4.386;2023-07-29T14:43:31;22.59;64.34
73547;SHT30;61807;48.384;-4.386;2023-07-29T14:45:56;22.34;64.51
73547;SHT30;61807;48.384;-4.386;2023-07-29T14:48:23;22.18;65.26
73547;SHT30;61807;48.384;-4.386;2023-07-29T14:50:48;22.01;64.21
73547;SHT30;61807;48.384;-4.386;2023-07-29T14:53:14;21.93;66.20
73547;SHT30;61807;48.384;-4.386;2023-07-29T14:55:39;21.97;66.22
73547;SHT30;61807;48.384;-4.386;2023-07-29T14:58:04;22.04;66.34
73547;SHT30;61807;48.384;-4.386;2023-07-29T15:00:30;22.10;66.14
73547;SHT30;61807;48.384;-4.386;2023-07-29T15:02:55;22.06;65.85
73547;SHT30;61807;48.384;-4.386;2023-07-29T15:05:21;21.94;66.04
73547;SHT30;61807;48.384;-4.386;2023-07-29T15:07:46;21.86;66.48
73547;SHT30;61807;48.384;-4.386;2023-07-29T15:10:15;21.78;66.53
73547;SHT30;61807;48.384;-4.386;2023-07-29T15:12:41;21.63;66.51
73547;SHT30;61807;48.384;-4.386;2023-07-29T15:15:08;21.51;67.20
73547;SHT30;61807;48.384;-4.386;2023-07-29T15:17:33;21.45;67.77
73547;SHT30;61807;48.384;-4.386;2023-07-29T15:19:59;21.48;67.68
73547;SHT30;61807;48.384;-4.386;2023-07-29T15:22:24;21.52;67.42